sensor_id;sensor_type;location;lat;lon;timestamp;P1;durP1;ratioP1;P2;durP2;ratioP2
15055;SDS011;7626;42.674;23.284;2022-10-15T00:02:02;5.10;;;4.60;;
15055;SDS011;7626;42.674;23.284;2022-10-15T00:04:29;4.80;;;4.30;;
15055;SDS011;7626;42.674;23.284;2022-10-15T00:06:57;5.33;;;4.27;;
15055;SDS011;7626;42.674;23.284;2022-10-15T00:09:24;5.20;;;4.70;;
15055;SDS011;7626;42.674;23.284;2022-10-15T00:11:54;5.67;;;4.80;;
15055;SDS011;7626;42.674;23.284;2022-10-15T00:14:20;6.30;;;4.60;;
15055;SDS011;7626;42.674;23.284;2022-10-15T00:16:47;5.07;;;4.57;;
15055;SDS011;7626;42.674;23.284;2022-10-15T00:19:15;4.97;;;4.53;;
15055;SDS011;7626;42.674;23.284;2022-10-15T00:21:42;4.93;;;4.40;;
15055;SDS011;7626;42.674;23.284;2022-10-15T00:24:10;5.10;;;4.40;;
15055;SDS011;7626;42.674;23.284;2022-10-15T00:26:38;5.90;;;4.50;;
15055;SDS011;7626;42.674;23.284;2022-10-15T00:29:08;5.13;;;4.60;;
15055;SDS011;7626;42.674;23.284;2022-10-15T00:31:34;5.23;;;4.73;;
15055;SDS011;7626;42.674;23.284;2022-10-15T00:34:01;5.43;;;4.67;;
15055;SDS011;7626;42.674;23.284;2022-10-15T00:36:30;6.93;;;4.90;;
15055;SDS011;7626;42.674;23.284;2022-10-15T00:38:59;4.93;;;4.43;;
15055;SDS011;7626;42.674;23.284;2022-10-15T00:41:29;5.80;;;4.70;;
15055;SDS011;7626;42.674;23.284;2022-10-15T00:43:59;5.93;;;4.90;;
15055;SDS011;7626;42.674;23.284;2022-10-15T00:46:30;6.40;;;4.80;;
15055;SDS011;7626;42.674;23.284;2022-10-15T00:49:02;5.33;;;4.77;;
15055;SDS011;7626;42.674;23.284;2022-10-15T00:51:44;4.77;;;4.27;;
15055;SDS011;7626;42.674;23.284;2022-10-15T00:54:16;5.37;;;4.87;;
15055;SDS011;7626;42.674;23.284;2022-10-15T00:56:43;5.40;;;4.90;;
15055;SDS011;7626;42.674;23.284;2022-10-15T00:59:10;6.00;;;5.40;;
15055;SDS011;7626;42.674;23.284;2022-10-15T01:01:41;4.97;;;4.47;;
15055;SDS011;7626;42.674;23.284;2022-10-15T01:04:08;5.63;;;5.13;;
15055;SDS011;7626;42.674;23.284;2022-10-15T01:06:37;5.80;;;5.20;;
15055;SDS011;7626;42.674;23.284;2022-10-15T01:09:05;5.73;;;5.23;;
15055;SDS011;7626;42.674;23.284;2022-10-15T01:11:35;5.87;;;5.30;;
15055;SDS011;7626;42.674;23.284;2022-10-15T01:14:11;5.93;;;5.33;;
15055;SDS011;7626;42.674;23.284;2022-10-15T01:16:53;6.03;;;5.30;;
15055;SDS011;7626;42.674;23.284;2022-10-15T01:19:30;7.73;;;5.37;;
15055;SDS011;7626;42.674;23.284;2022-10-15T01:22:14;6.13;;;5.53;;
15055;SDS011;7626;42.674;23.284;2022-10-15T01:27:40;6.30;;;5.10;;
15055;SDS011;7626;42.674;23.284;2022-10-15T01:30:21;5.73;;;5.17;;
15055;SDS011;7626;42.674;23.284;2022-10-15T01:35:43;5.43;;;4.93;;
15055;SDS011;7626;42.674;23.284;2022-10-15T01:38:19;5.93;;;5.27;;
15055;SDS011;7626;42.674;23.284;2022-10-15T01:40:51;5.30;;;4.80;;
15055;SDS011;7626;42.674;23.284;2022-10-15T01:43:23;5.70;;;5.20;;
15055;SDS011;7626;42.674;23.284;2022-10-15T01:45:58;5.57;;;4.97;;
15055;SDS011;7626;42.674;23.284;2022-10-15T01:48:30;5.63;;;5.03;;
15055;SDS011;7626;42.674;23.284;2022-10-15T01:51:00;5.67;;;5.17;;
15055;SDS011;7626;42.674;23.284;2022-10-15T01:53:29;6.00;;;5.40;;
15055;SDS011;7626;42.674;23.284;2022-10-15T01:55:59;5.57;;;4.97;;
15055;SDS011;7626;42.674;23.284;2022-10-15T01:58:29;7.17;;;5.33;;
15055;SDS011;7626;42.674;23.284;2022-10-15T02:00:58;6.40;;;5.23;;
15055;SDS011;7626;42.674;23.284;2022-10-15T02:03:25;5.37;;;4.87;;
15055;SDS011;7626;42.674;23.284;2022-10-15T02:05:54;5.63;;;5.10;;
15055;SDS011;7626;42.674;23.284;2022-10-15T02:08:30;5.73;;;4.73;;
15055;SDS011;7626;42.674;23.284;2022-10-15T02:11:05;5.90;;;5.33;;
15055;SDS011;7626;42.674;23.284;2022-10-15T02:13:38;5.43;;;4.93;;
15055;SDS011;7626;42.674;23.284;2022-10-15T02:16:15;6.10;;;5.33;;
15055;SDS011;7626;42.674;23.284;2022-10-15T02:18:50;5.47;;;4.97;;
15055;SDS011;7626;42.674;23.284;2022-10-15T02:21:24;5.40;;;4.90;;
15055;SDS011;7626;42.674;23.284;2022-10-15T02:24:00;5.37;;;4.87;;
15055;SDS011;7626;42.674;23.284;2022-10-15T02:26:32;5.33;;;4.93;;
15055;SDS011;7626;42.674;23.284;2022-10-15T02:28:59;5.30;;;4.80;;
15055;SDS011;7626;42.674;23.284;2022-10-15T02:31:30;5.63;;;5.07;;
15055;SDS011;7626;42.674;23.284;2022-10-15T02:34:03;7.30;;;4.77;;
15055;SDS011;7626;42.674;23.284;2022-10-15T02:36:33;6.27;;;5.27;;
15055;SDS011;7626;42.674;23.284;2022-10-15T02:39:01;6.37;;;5.03;;
15055;SDS011;7626;42.674;23.284;2022-10-15T02:41:32;6.10;;;5.50;;
15055;SDS011;7626;42.674;23.284;2022-10-15T02:44:00;5.80;;;5.10;;
15055;SDS011;7626;42.674;23.284;2022-10-15T02:46:27;5.90;;;5.30;;
15055;SDS011;7626;42.674;23.284;2022-10-15T02:48:55;6.23;;;5.17;;
15055;SDS011;7626;42.674;23.284;2022-10-15T02:51:23;6.23;;;5.63;;
15055;SDS011;7626;42.674;23.284;2022-10-15T02:53:50;5.97;;;5.20;;
15055;SDS011;7626;42.674;23.284;2022-10-15T02:56:21;5.50;;;5.00;;
15055;SDS011;7626;42.674;23.284;2022-10-15T02:58:49;7.03;;;5.10;;
15055;SDS011;7626;42.674;23.284;2022-10-15T03:01:16;5.77;;;5.03;;
15055;SDS011;7626;42.674;23.284;2022-10-15T03:03:42;5.90;;;5.10;;
15055;SDS011;7626;42.674;23.284;2022-10-15T03:06:11;5.87;;;4.90;;
15055;SDS011;7626;42.674;23.284;2022-10-15T03:08:38;5.43;;;4.97;;
15055;SDS011;7626;42.674;23.284;2022-10-15T03:11:06;5.73;;;5.17;;
15055;SDS011;7626;42.674;23.284;2022-10-15T03:13:34;5.73;;;5.13;;
15055;SDS011;7626;42.674;23.284;2022-10-15T03:16:02;7.07;;;5.50;;
15055;SDS011;7626;42.674;23.284;2022-10-15T03:18:30;6.57;;;5.50;;
15055;SDS011;7626;42.674;23.284;2022-10-15T03:20:58;6.33;;;5.50;;
15055;SDS011;7626;42.674;23.284;2022-10-15T03:23:26;6.33;;;5.00;;
15055;SDS011;7626;42.674;23.284;2022-10-15T03:25:56;7.40;;;5.70;;
15055;SDS011;7626;42.674;23.284;2022-10-15T03:28:22;6.37;;;5.13;;
15055;SDS011;7626;42.674;23.284;2022-10-15T03:30:51;5.60;;;5.07;;
15055;SDS011;7626;42.674;23.284;2022-10-15T03:33:18;6.10;;;5.47;;
15055;SDS011;7626;42.674;23.284;2022-10-15T03:35:45;5.50;;;4.97;;
15055;SDS011;7626;42.674;23.284;2022-10-15T03:38:12;5.30;;;4.80;;
15055;SDS011;7626;42.674;23.284;2022-10-15T03:40:40;6.67;;;5.30;;
15055;SDS011;7626;42.674;23.284;2022-10-15T03:43:07;6.13;;;5.53;;
15055;SDS011;7626;42.674;23.284;2022-10-15T03:45:33;5.43;;;4.93;;
15055;SDS011;7626;42.674;23.284;2022-10-15T03:48:00;5.47;;;4.97;;
15055;SDS011;7626;42.674;23.284;2022-10-15T03:50:27;6.37;;;5.03;;
15055;SDS011;7626;42.674;23.284;2022-10-15T03:52:54;5.67;;;5.17;;
15055;SDS011;7626;42.674;23.284;2022-10-15T03:55:20;6.83;;;4.97;;
15055;SDS011;7626;42.674;23.284;2022-10-15T03:57:49;5.60;;;5.10;;
15055;SDS011;7626;42.674;23.284;2022-10-15T04:00:15;5.53;;;5.00;;
15055;SDS011;7626;42.674;23.284;2022-10-15T04:02:42;7.30;;;5.80;;
15055;SDS011;7626;42.674;23.284;2022-10-15T04:05:09;8.07;;;5.73;;
15055;SDS011;7626;42.674;23.284;2022-10-15T04:07:36;5.80;;;5.30;;
15055;SDS011;7626;42.674;23.284;2022-10-15T04:10:02;5.93;;;5.33;;
15055;SDS011;7626;42.674;23.284;2022-10-15T04:12:30;6.23;;;5.20;;
15055;SDS011;7626;42.674;23.284;2022-10-15T04:14:58;7.13;;;5.23;;
15055;SDS011;7626;42.674;23.284;2022-10-15T04:17:24;7.07;;;5.53;;
15055;SDS011;7626;42.674;23.284;2022-10-15T04:19:51;6.50;;;5.37;;
15055;SDS011;7626;42.674;23.284;2022-10-15T04:22:18;6.10;;;5.50;;
15055;SDS011;7626;42.674;23.284;2022-10-15T04:24:45;6.60;;;5.63;;
15055;SDS011;7626;42.674;23.284;2022-10-15T04:27:12;5.90;;;5.20;;
15055;SDS011;7626;42.674;23.284;2022-10-15T04:29:39;6.20;;;5.40;;
15055;SDS011;7626;42.674;23.284;2022-10-15T04:32:07;6.63;;;5.93;;
15055;SDS011;7626;42.674;23.284;2022-10-15T04:34:38;7.73;;;6.00;;
15055;SDS011;7626;42.674;23.284;2022-10-15T04:37:04;7.00;;;5.87;;
15055;SDS011;7626;42.674;23.284;2022-10-15T04:39:35;6.77;;;6.07;;
15055;SDS011;7626;42.674;23.284;2022-10-15T04:42:02;7.87;;;5.93;;
15055;SDS011;7626;42.674;23.284;2022-10-15T04:44:29;7.13;;;6.30;;
15055;SDS011;7626;42.674;23.284;2022-10-15T04:46:56;6.30;;;5.43;;
15055;SDS011;7626;42.674;23.284;2022-10-15T04:49:24;10.20;;;9.17;;
15055;SDS011;7626;42.674;23.284;2022-10-15T04:51:51;8.03;;;7.23;;
15055;SDS011;7626;42.674;23.284;2022-10-15T04:54:18;7.03;;;6.33;;
15055;SDS011;7626;42.674;23.284;2022-10-15T04:56:45;8.77;;;6.60;;
15055;SDS011;7626;42.674;23.284;2022-10-15T04:59:12;7.10;;;6.40;;
15055;SDS011;7626;42.674;23.284;2022-10-15T05:01:38;6.70;;;6.00;;
15055;SDS011;7626;42.674;23.284;2022-10-15T05:04:05;6.63;;;5.97;;
15055;SDS011;7626;42.674;23.284;2022-10-15T05:06:35;10.07;;;7.87;;
15055;SDS011;7626;42.674;23.284;2022-10-15T05:09:01;7.97;;;6.70;;
15055;SDS011;7626;42.674;23.284;2022-10-15T05:11:29;8.97;;;6.00;;
15055;SDS011;7626;42.674;23.284;2022-10-15T05:13:56;7.30;;;6.13;;
15055;SDS011;7626;42.674;23.284;2022-10-15T05:16:25;6.43;;;5.83;;
15055;SDS011;7626;42.674;23.284;2022-10-15T05:18:54;7.93;;;6.33;;
15055;SDS011;7626;42.674;23.284;2022-10-15T05:21:22;8.87;;;6.50;;
15055;SDS011;7626;42.674;23.284;2022-10-15T05:23:53;8.53;;;6.50;;
15055;SDS011;7626;42.674;23.284;2022-10-15T05:26:20;7.87;;;6.53;;
15055;SDS011;7626;42.674;23.284;2022-10-15T05:28:48;8.27;;;6.90;;
15055;SDS011;7626;42.674;23.284;2022-10-15T05:31:16;7.40;;;6.70;;
15055;SDS011;7626;42.674;23.284;2022-10-15T05:33:44;6.60;;;6.00;;
15055;SDS011;7626;42.674;23.284;2022-10-15T05:36:12;8.27;;;6.57;;
15055;SDS011;7626;42.674;23.284;2022-10-15T05:38:41;7.90;;;6.70;;
15055;SDS011;7626;42.674;23.284;2022-10-15T05:41:09;7.90;;;7.10;;
15055;SDS011;7626;42.674;23.284;2022-10-15T05:43:36;8.43;;;7.27;;
15055;SDS011;7626;42.674;23.284;2022-10-15T05:46:04;8.27;;;6.80;;
15055;SDS011;7626;42.674;23.284;2022-10-15T05:48:31;7.27;;;6.47;;
15055;SDS011;7626;42.674;23.284;2022-10-15T05:51:02;7.43;;;6.73;;
15055;SDS011;7626;42.674;23.284;2022-10-15T05:53:30;11.47;;;6.73;;
15055;SDS011;7626;42.674;23.284;2022-10-15T05:55:56;7.87;;;7.10;;
15055;SDS011;7626;42.674;23.284;2022-10-15T05:58:25;7.60;;;6.70;;
15055;SDS011;7626;42.674;23.284;2022-10-15T06:00:53;9.20;;;6.77;;
15055;SDS011;7626;42.674;23.284;2022-10-15T06:03:21;7.27;;;6.53;;
15055;SDS011;7626;42.674;23.284;2022-10-15T06:05:48;10.13;;;8.93;;
15055;SDS011;7626;42.674;23.284;2022-10-15T06:08:15;9.87;;;7.73;;
15055;SDS011;7626;42.674;23.284;2022-10-15T06:10:42;9.40;;;7.97;;
15055;SDS011;7626;42.674;23.284;2022-10-15T06:13:09;7.50;;;6.73;;
15055;SDS011;7626;42.674;23.284;2022-10-15T06:15:39;7.70;;;6.63;;
15055;SDS011;7626;42.674;23.284;2022-10-15T06:18:06;9.30;;;7.10;;
15055;SDS011;7626;42.674;23.284;2022-10-15T06:20:33;9.77;;;6.90;;
15055;SDS011;7626;42.674;23.284;2022-10-15T06:23:01;8.50;;;6.63;;
15055;SDS011;7626;42.674;23.284;2022-10-15T06:25:29;9.40;;;7.23;;
15055;SDS011;7626;42.674;23.284;2022-10-15T06:27:59;9.27;;;6.70;;
15055;SDS011;7626;42.674;23.284;2022-10-15T06:30:27;10.50;;;7.77;;
15055;SDS011;7626;42.674;23.284;2022-10-15T06:33:00;8.00;;;7.23;;
15055;SDS011;7626;42.674;23.284;2022-10-15T06:35:30;9.70;;;7.13;;
15055;SDS011;7626;42.674;23.284;2022-10-15T06:38:11;9.57;;;6.93;;
15055;SDS011;7626;42.674;23.284;2022-10-15T06:40:41;9.13;;;7.10;;
15055;SDS011;7626;42.674;23.284;2022-10-15T06:43:10;7.57;;;6.63;;
15055;SDS011;7626;42.674;23.284;2022-10-15T06:45:37;8.80;;;7.80;;
15055;SDS011;7626;42.674;23.284;2022-10-15T06:48:08;8.70;;;6.77;;
15055;SDS011;7626;42.674;23.284;2022-10-15T06:50:35;7.13;;;6.27;;
15055;SDS011;7626;42.674;23.284;2022-10-15T06:53:03;9.30;;;6.67;;
15055;SDS011;7626;42.674;23.284;2022-10-15T06:55:30;7.97;;;6.27;;
15055;SDS011;7626;42.674;23.284;2022-10-15T06:57:57;7.93;;;6.83;;
15055;SDS011;7626;42.674;23.284;2022-10-15T07:00:24;7.23;;;6.40;;
15055;SDS011;7626;42.674;23.284;2022-10-15T07:02:52;9.70;;;7.00;;
15055;SDS011;7626;42.674;23.284;2022-10-15T07:05:20;6.93;;;6.23;;
15055;SDS011;7626;42.674;23.284;2022-10-15T07:07:50;9.30;;;6.93;;
15055;SDS011;7626;42.674;23.284;2022-10-15T07:10:17;8.73;;;6.30;;
15055;SDS011;7626;42.674;23.284;2022-10-15T07:12:44;7.43;;;6.73;;
15055;SDS011;7626;42.674;23.284;2022-10-15T07:15:13;7.57;;;6.60;;
15055;SDS011;7626;42.674;23.284;2022-10-15T07:17:44;7.60;;;6.10;;
15055;SDS011;7626;42.674;23.284;2022-10-15T07:20:12;7.40;;;6.27;;
15055;SDS011;7626;42.674;23.284;2022-10-15T07:22:40;11.63;;;6.20;;
15055;SDS011;7626;42.674;23.284;2022-10-15T07:25:08;17.37;;;7.40;;
15055;SDS011;7626;42.674;23.284;2022-10-15T07:27:36;14.63;;;7.17;;
15055;SDS011;7626;42.674;23.284;2022-10-15T07:30:04;8.07;;;6.57;;
15055;SDS011;7626;42.674;23.284;2022-10-15T07:32:32;9.93;;;7.23;;
15055;SDS011;7626;42.674;23.284;2022-10-15T07:34:59;9.63;;;7.97;;
15055;SDS011;7626;42.674;23.284;2022-10-15T07:37:26;8.37;;;7.50;;
15055;SDS011;7626;42.674;23.284;2022-10-15T07:39:54;8.50;;;6.07;;
15055;SDS011;7626;42.674;23.284;2022-10-15T07:42:21;6.60;;;6.00;;
15055;SDS011;7626;42.674;23.284;2022-10-15T07:44:48;6.70;;;5.97;;
15055;SDS011;7626;42.674;23.284;2022-10-15T07:47:15;6.37;;;5.77;;
15055;SDS011;7626;42.674;23.284;2022-10-15T07:49:41;6.83;;;5.50;;
15055;SDS011;7626;42.674;23.284;2022-10-15T07:52:09;6.83;;;6.13;;
15055;SDS011;7626;42.674;23.284;2022-10-15T07:54:37;6.83;;;6.10;;
15055;SDS011;7626;42.674;23.284;2022-10-15T07:57:07;7.87;;;6.10;;
15055;SDS011;7626;42.674;23.284;2022-10-15T07:59:34;7.10;;;6.40;;
15055;SDS011;7626;42.674;23.284;2022-10-15T08:02:01;9.00;;;5.87;;
15055;SDS011;7626;42.674;23.284;2022-10-15T08:04:27;6.87;;;6.17;;
15055;SDS011;7626;42.674;23.284;2022-10-15T08:06:54;7.43;;;6.37;;
15055;SDS011;7626;42.674;23.284;2022-10-15T08:09:21;7.80;;;7.10;;
15055;SDS011;7626;42.674;23.284;2022-10-15T08:11:48;8.43;;;7.53;;
15055;SDS011;7626;42.674;23.284;2022-10-15T08:14:16;7.23;;;6.53;;
15055;SDS011;7626;42.674;23.284;2022-10-15T08:16:43;7.67;;;6.10;;
15055;SDS011;7626;42.674;23.284;2022-10-15T08:19:10;7.17;;;6.10;;
15055;SDS011;7626;42.674;23.284;2022-10-15T08:21:37;6.33;;;5.73;;
15055;SDS011;7626;42.674;23.284;2022-10-15T08:24:04;7.93;;;6.07;;
15055;SDS011;7626;42.674;23.284;2022-10-15T08:26:31;6.27;;;5.67;;
15055;SDS011;7626;42.674;23.284;2022-10-15T08:28:59;6.17;;;5.50;;
15055;SDS011;7626;42.674;23.284;2022-10-15T08:31:27;6.33;;;5.73;;
15055;SDS011;7626;42.674;23.284;2022-10-15T08:33:53;5.93;;;5.27;;
15055;SDS011;7626;42.674;23.284;2022-10-15T08:36:20;5.53;;;5.03;;
15055;SDS011;7626;42.674;23.284;2022-10-15T08:38:47;10.03;;;6.10;;
15055;SDS011;7626;42.674;23.284;2022-10-15T08:41:17;6.60;;;5.00;;
15055;SDS011;7626;42.674;23.284;2022-10-15T08:43:48;6.60;;;5.35;;
15055;SDS011;7626;42.674;23.284;2022-10-15T08:46:17;5.97;;;5.37;;
15055;SDS011;7626;42.674;23.284;2022-10-15T08:48:52;6.18;;;5.57;;
15055;SDS011;7626;42.674;23.284;2022-10-15T08:51:21;7.00;;;5.47;;
15055;SDS011;7626;42.674;23.284;2022-10-15T08:53:50;5.28;;;4.78;;
15055;SDS011;7626;42.674;23.284;2022-10-15T08:56:20;6.05;;;5.10;;
15055;SDS011;7626;42.674;23.284;2022-10-15T08:58:52;5.50;;;4.90;;
15055;SDS011;7626;42.674;23.284;2022-10-15T09:01:28;7.78;;;5.07;;
15055;SDS011;7626;42.674;23.284;2022-10-15T09:04:04;5.95;;;5.28;;
15055;SDS011;7626;42.674;23.284;2022-10-15T09:06:39;5.90;;;5.40;;
15055;SDS011;7626;42.674;23.284;2022-10-15T09:09:11;6.20;;;4.88;;
15055;SDS011;7626;42.674;23.284;2022-10-15T09:11:47;5.15;;;4.68;;
15055;SDS011;7626;42.674;23.284;2022-10-15T09:14:24;6.13;;;5.53;;
15055;SDS011;7626;42.674;23.284;2022-10-15T09:16:56;6.38;;;5.35;;
15055;SDS011;7626;42.674;23.284;2022-10-15T09:19:28;5.80;;;5.20;;
15055;SDS011;7626;42.674;23.284;2022-10-15T09:21:55;6.43;;;5.82;;
15055;SDS011;7626;42.674;23.284;2022-10-15T09:24:27;5.10;;;4.60;;
15055;SDS011;7626;42.674;23.284;2022-10-15T09:26:58;6.45;;;5.70;;
15055;SDS011;7626;42.674;23.284;2022-10-15T09:29:32;5.40;;;4.97;;
15055;SDS011;7626;42.674;23.284;2022-10-15T09:32:07;5.70;;;5.15;;
15055;SDS011;7626;42.674;23.284;2022-10-15T09:34:43;6.10;;;5.60;;
15055;SDS011;7626;42.674;23.284;2022-10-15T09:37:16;7.60;;;6.20;;
15055;SDS011;7626;42.674;23.284;2022-10-15T09:39:54;5.53;;;5.03;;
15055;SDS011;7626;42.674;23.284;2022-10-15T09:42:29;5.53;;;4.72;;
15055;SDS011;7626;42.674;23.284;2022-10-15T09:45:02;5.60;;;5.03;;
15055;SDS011;7626;42.674;23.284;2022-10-15T09:47:32;6.03;;;4.78;;
15055;SDS011;7626;42.674;23.284;2022-10-15T09:50:02;5.82;;;5.30;;
15055;SDS011;7626;42.674;23.284;2022-10-15T09:52:37;6.10;;;5.18;;
15055;SDS011;7626;42.674;23.284;2022-10-15T09:55:29;6.25;;;4.78;;
15055;SDS011;7626;42.674;23.284;2022-10-15T09:58:03;5.43;;;4.90;;
15055;SDS011;7626;42.674;23.284;2022-10-15T10:03:32;4.95;;;4.53;;
15055;SDS011;7626;42.674;23.284;2022-10-15T10:06:11;6.15;;;4.65;;
15055;SDS011;7626;42.674;23.284;2022-10-15T10:08:40;5.80;;;5.03;;
15055;SDS011;7626;42.674;23.284;2022-10-15T10:11:15;5.80;;;5.20;;
15055;SDS011;7626;42.674;23.284;2022-10-15T10:13:44;5.85;;;5.35;;
15055;SDS011;7626;42.674;23.284;2022-10-15T10:16:16;6.07;;;5.28;;
15055;SDS011;7626;42.674;23.284;2022-10-15T10:19:03;5.75;;;5.22;;
15055;SDS011;7626;42.674;23.284;2022-10-15T10:21:40;5.20;;;4.70;;
15055;SDS011;7626;42.674;23.284;2022-10-15T10:27:11;4.97;;;4.53;;
15055;SDS011;7626;42.674;23.284;2022-10-15T10:29:46;5.82;;;5.32;;
15055;SDS011;7626;42.674;23.284;2022-10-15T10:32:19;6.43;;;5.53;;
15055;SDS011;7626;42.674;23.284;2022-10-15T10:34:48;6.25;;;5.65;;
15055;SDS011;7626;42.674;23.284;2022-10-15T10:37:20;5.28;;;4.88;;
15055;SDS011;7626;42.674;23.284;2022-10-15T10:39:51;5.57;;;5.18;;
15055;SDS011;7626;42.674;23.284;2022-10-15T10:42:26;6.43;;;5.80;;
15055;SDS011;7626;42.674;23.284;2022-10-15T10:45:18;10.93;;;8.38;;
15055;SDS011;7626;42.674;23.284;2022-10-15T10:47:47;6.72;;;6.13;;
15055;SDS011;7626;42.674;23.284;2022-10-15T10:50:30;5.57;;;5.07;;
15055;SDS011;7626;42.674;23.284;2022-10-15T10:53:10;7.70;;;6.05;;
15055;SDS011;7626;42.674;23.284;2022-10-15T10:55:45;4.75;;;4.35;;
15055;SDS011;7626;42.674;23.284;2022-10-15T10:58:14;4.80;;;4.40;;
15055;SDS011;7626;42.674;23.284;2022-10-15T11:00:45;5.82;;;4.78;;
15055;SDS011;7626;42.674;23.284;2022-10-15T11:03:15;6.18;;;4.85;;
15055;SDS011;7626;42.674;23.284;2022-10-15T11:05:47;6.20;;;4.82;;
15055;SDS011;7626;42.674;23.284;2022-10-15T11:08:22;5.03;;;4.53;;
15055;SDS011;7626;42.674;23.284;2022-10-15T11:10:59;5.35;;;4.50;;
15055;SDS011;7626;42.674;23.284;2022-10-15T11:13:39;4.75;;;4.18;;
15055;SDS011;7626;42.674;23.284;2022-10-15T11:16:14;9.02;;;7.55;;
15055;SDS011;7626;42.674;23.284;2022-10-15T11:18:52;6.53;;;5.53;;
15055;SDS011;7626;42.674;23.284;2022-10-15T11:21:35;6.38;;;5.15;;
15055;SDS011;7626;42.674;23.284;2022-10-15T11:24:11;4.20;;;3.88;;
15055;SDS011;7626;42.674;23.284;2022-10-15T11:29:40;5.97;;;5.38;;
15055;SDS011;7626;42.674;23.284;2022-10-15T11:32:19;4.88;;;4.47;;
15055;SDS011;7626;42.674;23.284;2022-10-15T11:35:01;6.88;;;6.18;;
15055;SDS011;7626;42.674;23.284;2022-10-15T11:37:40;4.75;;;4.25;;
15055;SDS011;7626;42.674;23.284;2022-10-15T11:40:20;5.93;;;4.53;;
15055;SDS011;7626;42.674;23.284;2022-10-15T11:43:00;5.78;;;3.88;;
15055;SDS011;7626;42.674;23.284;2022-10-15T11:48:27;4.80;;;3.70;;
15055;SDS011;7626;42.674;23.284;2022-10-15T11:51:03;4.57;;;4.10;;
15055;SDS011;7626;42.674;23.284;2022-10-15T11:53:46;3.95;;;3.60;;
15055;SDS011;7626;42.674;23.284;2022-10-15T11:56:40;4.18;;;3.78;;
15055;SDS011;7626;42.674;23.284;2022-10-15T11:59:17;4.45;;;3.80;;
15055;SDS011;7626;42.674;23.284;2022-10-15T12:01:56;4.32;;;3.92;;
15055;SDS011;7626;42.674;23.284;2022-10-15T12:04:28;5.88;;;4.05;;
15055;SDS011;7626;42.674;23.284;2022-10-15T12:06:59;4.10;;;3.65;;
15055;SDS011;7626;42.674;23.284;2022-10-15T12:09:30;5.75;;;3.70;;
15055;SDS011;7626;42.674;23.284;2022-10-15T12:12:04;3.63;;;3.30;;
15055;SDS011;7626;42.674;23.284;2022-10-15T12:14:37;3.75;;;3.30;;
15055;SDS011;7626;42.674;23.284;2022-10-15T12:17:10;5.13;;;3.70;;
15055;SDS011;7626;42.674;23.284;2022-10-15T12:19:46;3.40;;;3.10;;
15055;SDS011;7626;42.674;23.284;2022-10-15T12:22:30;5.97;;;4.20;;
15055;SDS011;7626;42.674;23.284;2022-10-15T12:24:59;3.40;;;3.10;;
15055;SDS011;7626;42.674;23.284;2022-10-15T12:27:29;3.63;;;3.33;;
15055;SDS011;7626;42.674;23.284;2022-10-15T12:32:53;3.60;;;3.30;;
15055;SDS011;7626;42.674;23.284;2022-10-15T12:35:21;14.60;;;7.50;;
15055;SDS011;7626;42.674;23.284;2022-10-15T12:38:07;12.83;;;7.47;;
15055;SDS011;7626;42.674;23.284;2022-10-15T12:40:37;9.17;;;6.50;;
15055;SDS011;7626;42.674;23.284;2022-10-15T12:43:11;5.83;;;5.13;;
15055;SDS011;7626;42.674;23.284;2022-10-15T12:45:47;5.70;;;3.73;;
15055;SDS011;7626;42.674;23.284;2022-10-15T12:48:22;4.67;;;3.60;;
15055;SDS011;7626;42.674;23.284;2022-10-15T12:57:13;3.60;;;3.30;;
15055;SDS011;7626;42.674;23.284;2022-10-15T13:00:27;4.27;;;3.30;;
15055;SDS011;7626;42.674;23.284;2022-10-15T13:03:07;3.37;;;3.07;;
15055;SDS011;7626;42.674;23.284;2022-10-15T13:05:49;4.80;;;3.90;;
15055;SDS011;7626;42.674;23.284;2022-10-15T13:08:20;3.90;;;3.50;;
15055;SDS011;7626;42.674;23.284;2022-10-15T13:10:50;3.97;;;3.37;;
15055;SDS011;7626;42.674;23.284;2022-10-15T13:13:21;3.37;;;3.07;;
15055;SDS011;7626;42.674;23.284;2022-10-15T13:15:56;5.07;;;3.70;;
15055;SDS011;7626;42.674;23.284;2022-10-15T13:18:25;6.07;;;3.57;;
15055;SDS011;7626;42.674;23.284;2022-10-15T13:20:53;5.57;;;3.30;;
15055;SDS011;7626;42.674;23.284;2022-10-15T13:23:22;4.90;;;3.60;;
15055;SDS011;7626;42.674;23.284;2022-10-15T13:25:52;3.87;;;3.40;;
15055;SDS011;7626;42.674;23.284;2022-10-15T13:28:36;6.03;;;3.57;;
15055;SDS011;7626;42.674;23.284;2022-10-15T13:31:10;5.30;;;3.60;;
15055;SDS011;7626;42.674;23.284;2022-10-15T13:33:42;3.80;;;3.50;;
15055;SDS011;7626;42.674;23.284;2022-10-15T13:36:18;6.13;;;3.60;;
15055;SDS011;7626;42.674;23.284;2022-10-15T13:38:52;4.03;;;3.43;;
15055;SDS011;7626;42.674;23.284;2022-10-15T13:41:22;3.50;;;3.07;;
15055;SDS011;7626;42.674;23.284;2022-10-15T13:43:54;4.63;;;3.70;;
15055;SDS011;7626;42.674;23.284;2022-10-15T13:46:25;6.10;;;4.27;;
15055;SDS011;7626;42.674;23.284;2022-10-15T13:48:56;4.60;;;4.20;;
15055;SDS011;7626;42.674;23.284;2022-10-15T13:51:26;4.73;;;3.37;;
15055;SDS011;7626;42.674;23.284;2022-10-15T13:53:58;5.73;;;4.40;;
15055;SDS011;7626;42.674;23.284;2022-10-15T13:56:28;5.13;;;4.07;;
15055;SDS011;7626;42.674;23.284;2022-10-15T13:58:56;5.53;;;3.40;;
15055;SDS011;7626;42.674;23.284;2022-10-15T14:01:26;4.87;;;3.97;;
15055;SDS011;7626;42.674;23.284;2022-10-15T14:03:55;4.37;;;3.57;;
15055;SDS011;7626;42.674;23.284;2022-10-15T14:06:24;5.07;;;3.50;;
15055;SDS011;7626;42.674;23.284;2022-10-15T14:08:52;4.93;;;3.87;;
15055;SDS011;7626;42.674;23.284;2022-10-15T14:11:20;5.87;;;5.23;;
15055;SDS011;7626;42.674;23.284;2022-10-15T14:13:48;6.03;;;4.30;;
15055;SDS011;7626;42.674;23.284;2022-10-15T14:16:17;4.23;;;3.83;;
15055;SDS011;7626;42.674;23.284;2022-10-15T14:18:48;4.23;;;3.83;;
15055;SDS011;7626;42.674;23.284;2022-10-15T14:21:19;4.53;;;3.80;;
15055;SDS011;7626;42.674;23.284;2022-10-15T14:23:59;4.00;;;3.60;;
15055;SDS011;7626;42.674;23.284;2022-10-15T14:26:29;4.50;;;3.80;;
15055;SDS011;7626;42.674;23.284;2022-10-15T14:28:57;4.47;;;3.87;;
15055;SDS011;7626;42.674;23.284;2022-10-15T14:31:27;4.83;;;3.90;;
15055;SDS011;7626;42.674;23.284;2022-10-15T14:33:58;4.87;;;4.20;;
15055;SDS011;7626;42.674;23.284;2022-10-15T14:36:25;5.10;;;4.60;;
15055;SDS011;7626;42.674;23.284;2022-10-15T14:38:54;4.80;;;3.63;;
15055;SDS011;7626;42.674;23.284;2022-10-15T14:41:57;4.70;;;3.60;;
15055;SDS011;7626;42.674;23.284;2022-10-15T14:44:38;6.60;;;4.20;;
15055;SDS011;7626;42.674;23.284;2022-10-15T14:47:13;4.40;;;4.00;;
15055;SDS011;7626;42.674;23.284;2022-10-15T14:49:46;3.70;;;3.40;;
15055;SDS011;7626;42.674;23.284;2022-10-15T14:52:14;3.93;;;3.53;;
15055;SDS011;7626;42.674;23.284;2022-10-15T14:54:45;4.60;;;3.87;;
15055;SDS011;7626;42.674;23.284;2022-10-15T14:57:17;4.30;;;3.37;;
15055;SDS011;7626;42.674;23.284;2022-10-15T14:59:50;5.07;;;3.70;;
15055;SDS011;7626;42.674;23.284;2022-10-15T15:02:18;4.70;;;3.93;;
15055;SDS011;7626;42.674;23.284;2022-10-15T15:04:52;10.77;;;3.63;;
15055;SDS011;7626;42.674;23.284;2022-10-15T15:07:32;5.07;;;3.57;;
15055;SDS011;7626;42.674;23.284;2022-10-15T15:09:59;6.57;;;4.07;;
15055;SDS011;7626;42.674;23.284;2022-10-15T15:12:26;4.97;;;3.50;;
15055;SDS011;7626;42.674;23.284;2022-10-15T15:14:55;4.33;;;3.57;;
15055;SDS011;7626;42.674;23.284;2022-10-15T15:17:22;5.80;;;5.20;;
15055;SDS011;7626;42.674;23.284;2022-10-15T15:19:52;7.53;;;4.73;;
15055;SDS011;7626;42.674;23.284;2022-10-15T15:22:22;8.50;;;4.40;;
15055;SDS011;7626;42.674;23.284;2022-10-15T15:24:53;5.47;;;4.07;;
15055;SDS011;7626;42.674;23.284;2022-10-15T15:27:21;4.87;;;4.40;;
15055;SDS011;7626;42.674;23.284;2022-10-15T15:29:49;9.30;;;4.60;;
15055;SDS011;7626;42.674;23.284;2022-10-15T15:32:17;6.53;;;4.97;;
15055;SDS011;7626;42.674;23.284;2022-10-15T15:34:45;5.90;;;4.63;;
15055;SDS011;7626;42.674;23.284;2022-10-15T15:37:14;9.40;;;6.27;;